^^
WestSenecaWeather Station Historical Data
 
Daily Summary for October 16, 2019 Units:  English    Metric   Both
Daily Weekly Monthly Yearly Custom
  Current: High: Low: Average:
Temperature: 47.3 °F 61.7 °F 44.7 °F 52.3 °F
Dew Point: 44.2 °F 51.2 °F 41.4 °F 46.2 °F
Humidity: 89% 95% 51% 82%
Wind Speed: 2mph 11.5mph 0mph 2.6mph
Wind Gust: 12mph 17mph - -
WindENE - - WSW
Pressure: 29.47 in 29.80 in 29.47 in -
Precipitation: 1.34 in      
Historical Graphs
 
 
Tabular Data for October 16, 2019
Time Temperature Dew Point Pressure Wind Wind Speed Wind Gust Humidity Rainfall Rate (Hourly) solar
00:00 47.3 °F 42.1 °F 29.80 in Calm     82% 0 in WeatherDisplay:10.37 W/m2
00:05 47 °F 42.1 °F 29.80 in Calm     83% 0 in WeatherDisplay:10.37 W/m2
00:10 46.8 °F 41.9 °F 29.79 in Calm     83% 0 in WeatherDisplay:10.37 W/m2
00:15 46.6 °F 42 °F 29.79 in Calm     84% 0 in WeatherDisplay:10.37 W/m2
00:20 46.3 °F 41.7 °F 29.79 in Calm     84% 0 in WeatherDisplay:10.37 W/m2
00:25 46 °F 41.8 °F 29.79 in Calm     85% 0 in WeatherDisplay:10.37 W/m2
00:30 45.8 °F 41.6 °F 29.79 in Calm     85% 0 in WeatherDisplay:10.37 W/m2
00:35 45.6 °F 41.7 °F 29.79 in Calm     86% 0 in WeatherDisplay:10.37 W/m2
00:40 45.4 °F 41.8 °F 29.78 in Calm     87% 0 in WeatherDisplay:10.37 W/m2
00:45 45.3 °F 41.7 °F 29.78 in Calm     87% 0 in WeatherDisplay:10.37 W/m2
00:50 45.1 °F 41.5 °F 29.78 in Calm     87% 0 in WeatherDisplay:10.37 W/m2
00:55 45 °F 41.4 °F 29.78 in Calm     87% 0 in WeatherDisplay:10.37 W/m2
01:00 44.9 °F 41.6 °F 29.77 in Calm     88% 0 in WeatherDisplay:10.37 W/m2
01:05 44.8 °F 41.5 °F 29.77 in Calm     88% 0 in WeatherDisplay:10.37 W/m2
01:10 44.7 °F 41.4 °F 29.77 in Calm     88% 0 in WeatherDisplay:10.37 W/m2
01:15 44.7 °F 41.7 °F 29.77 in Calm     89% 0 in WeatherDisplay:10.37 W/m2
01:20 44.7 °F 41.7 °F 29.76 in Calm     89% 0 in WeatherDisplay:10.37 W/m2
01:25 44.8 °F 41.8 °F 29.76 in Calm     89% 0 in WeatherDisplay:10.37 W/m2
01:30 44.9 °F 41.9 °F 29.75 in Calm     89% 0 in WeatherDisplay:10.37 W/m2
01:35 45 °F 41.9 °F 29.75 in Calm     89% 0 in WeatherDisplay:10.37 W/m2
01:40 45.2 °F 42.1 °F 29.75 in Calm     89% 0 in WeatherDisplay:10.37 W/m2
01:45 45.7 °F 43 °F 29.75 in Calm   2 mph 90% 0 in WeatherDisplay:10.37 W/m2
01:50 46.5 °F 43.4 °F 29.74 in Calm   3 mph 89% 0 in WeatherDisplay:10.37 W/m2
01:55 47.1 °F 43.7 °F 29.74 in Calm     88% 0 in WeatherDisplay:10.37 W/m2
02:00 47.7 °F 44 °F 29.73 in Calm     87% 0 in WeatherDisplay:10.37 W/m2
02:05 48.6 °F 44.3 °F 29.73 in Calm     85% 0 in WeatherDisplay:10.37 W/m2
02:10 49.9 °F 45 °F 29.73 in SW 1 mph 4 mph 83% 0 in WeatherDisplay:10.37 W/m2
02:15 52 °F 45.4 °F 29.72 in WNW 1 mph 5 mph 78% 0 in WeatherDisplay:10.37 W/m2
02:20 54.1 °F 44.9 °F 29.72 in WNW 2 mph 9 mph 71% 0 in WeatherDisplay:10.37 W/m2
02:25 56.9 °F 45.3 °F 29.72 in NW 5 mph 12 mph 65% 0 in WeatherDisplay:10.37 W/m2
02:30 58.4 °F 45 °F 29.72 in NW 1 mph 12 mph 61% 0 in WeatherDisplay:10.37 W/m2
02:35 59.3 °F 44.5 °F 29.71 in WNW 5 mph 12 mph 58% 0 in WeatherDisplay:10.37 W/m2
02:40 59.6 °F 43.9 °F 29.71 in WNW 6 mph 13 mph 56% 0 in WeatherDisplay:10.37 W/m2
02:45 60 °F 44.3 °F 29.71 in WNW 3 mph 17 mph 56% 0 in WeatherDisplay:10.37 W/m2
02:50 60.4 °F 44.1 °F 29.71 in WNW 5 mph 12 mph 55% 0 in WeatherDisplay:10.37 W/m2
02:55 60.5 °F 43.8 °F 29.70 in WNW 7 mph 14 mph 54% 0 in WeatherDisplay:10.37 W/m2
03:00 60.6 °F 43.9 °F 29.70 in WNW 5 mph 9 mph 54% 0 in WeatherDisplay:10.37 W/m2
03:05 60.8 °F 43.6 °F 29.70 in WNW 2 mph 12 mph 53% 0 in WeatherDisplay:10.37 W/m2
03:10 60.9 °F 43.6 °F 29.70 in WNW 5 mph 10 mph 53% 0 in WeatherDisplay:10.37 W/m2
03:15 61.1 °F 43.3 °F 29.69 in WNW 5 mph 12 mph 52% 0 in WeatherDisplay:10.37 W/m2
03:20 61.2 °F 43.4 °F 29.69 in NW 3 mph 12 mph 52% 0 in WeatherDisplay:10.37 W/m2
03:25 61.2 °F 43.4 °F 29.68 in NW 3 mph 10 mph 52% 0 in WeatherDisplay:10.37 W/m2
03:30 61.3 °F 43.5 °F 29.68 in WNW 5 mph 12 mph 52% 0 in WeatherDisplay:10.37 W/m2
03:35 61.4 °F 43.6 °F 29.68 in NW 3 mph 10 mph 52% 0 in WeatherDisplay:10.37 W/m2
03:40 61.5 °F 43.7 °F 29.68 in NW 7 mph 12 mph 52% 0 in WeatherDisplay:10.37 W/m2
03:45 61.6 °F 43.3 °F 29.68 in West 8.1 mph 4.9 mph 51% 0 in WeatherDisplay:10.37 W/m2
03:50 61.7 °F 43.3 °F 29.67 in WNW 5 mph 12 mph 51% 0 in WeatherDisplay:10.37 W/m2
03:55 61.6 °F 43.8 °F 29.67 in WNW 1 mph 8 mph 52% 0 in WeatherDisplay:10.37 W/m2
04:00 61.3 °F 44 °F 29.67 in NW 2 mph 5 mph 53% 0 in WeatherDisplay:10.37 W/m2
04:05 60.9 °F 44.1 °F 29.67 in WNW 2 mph 6 mph 54% 0 in WeatherDisplay:10.37 W/m2
04:10 60.5 °F 43.8 °F 29.66 in WNW 6 mph 9 mph 54% 0 in WeatherDisplay:10.37 W/m2
04:15 60.4 °F 44.1 °F 29.66 in WNW 2 mph 5 mph 55% 0 in WeatherDisplay:10.37 W/m2
04:20 60.2 °F 44.4 °F 29.66 in WNW 3 mph 7 mph 56% 0 in WeatherDisplay:10.37 W/m2
04:25 60.2 °F 44.4 °F 29.66 in WNW 5 mph 8 mph 56% 0 in WeatherDisplay:10.37 W/m2
04:30 60.3 °F 44.5 °F 29.65 in WNW 1 mph 12 mph 56% 0 in WeatherDisplay:10.37 W/m2
04:35 60.5 °F 44.2 °F 29.65 in WNW 3 mph 14 mph 55% 0 in WeatherDisplay:10.37 W/m2
04:40 60.5 °F 44.2 °F 29.65 in WNW 5 mph 12 mph 55% 0 in WeatherDisplay:10.37 W/m2
04:45 60.6 °F 44.3 °F 29.65 in WNW 2 mph 9 mph 55% 0 in WeatherDisplay:10.37 W/m2
04:50 60.6 °F 44.3 °F 29.64 in WNW 5 mph 7 mph 55% 0 in WeatherDisplay:10.37 W/m2
04:55 60.9 °F 44.6 °F 29.64 in NW 11.5 mph 5.6 mph 55% 0 in WeatherDisplay:10.37 W/m2
05:00 61 °F 44.2 °F 29.64 in NW 5 mph 12 mph 54% 0 in WeatherDisplay:10.37 W/m2
05:05 61 °F 44.2 °F 29.64 in WNW 5 mph 12 mph 54% 0 in WeatherDisplay:10.37 W/m2
05:10 60.9 °F 44.1 °F 29.63 in WNW 3 mph 9 mph 54% 0 in WeatherDisplay:10.37 W/m2
05:15 60.9 °F 44.6 °F 29.63 in WNW 5 mph 9 mph 55% 0 in WeatherDisplay:10.37 W/m2
05:20 60.9 °F 44.6 °F 29.63 in WNW 2 mph 10 mph 55% 0 in WeatherDisplay:10.37 W/m2
05:25 60.9 °F 44.6 °F 29.62 in WNW 3 mph 10 mph 55% 0 in WeatherDisplay:10.37 W/m2
05:30 60.9 °F 44.6 °F 29.62 in NW 4.6 mph 3 mph 55% 0 in WeatherDisplay:10.37 W/m2
05:35 60.9 °F 44.6 °F 29.61 in WNW 2 mph 8 mph 55% 0 in WeatherDisplay:10.37 W/m2
05:40 60.9 °F 44.6 °F 29.61 in WNW 3 mph 9 mph 55% 0 in WeatherDisplay:10.37 W/m2
05:45 60.9 °F 44.6 °F 29.60 in WNW 6 mph 12 mph 55% 0 in WeatherDisplay:10.37 W/m2
05:50 60.9 °F 44.6 °F 29.60 in NW 5 mph 12 mph 55% 0 in WeatherDisplay:10.37 W/m2
05:55 60.8 °F 45 °F 29.60 in WNW 3 mph 10 mph 56% 0 in WeatherDisplay:10.37 W/m2
06:00 60.6 °F 44.8 °F 29.60 in WNW 5 mph 12 mph 56% 0 in WeatherDisplay:10.37 W/m2
06:05 60.5 °F 44.7 °F 29.59 in WNW 3 mph 12 mph 56% 0 in WeatherDisplay:10.37 W/m2
06:10 60.4 °F 44.6 °F 29.59 in NW 7 mph 12 mph 56% 0 in WeatherDisplay:10.37 W/m2
06:15 60.3 °F 45 °F 29.59 in NW 6 mph 3.2 mph 57% 0 in WeatherDisplay:10.37 W/m2
06:20 60.1 °F 44.8 °F 29.58 in WNW 5 mph 12 mph 57% 0 in WeatherDisplay:10.37 W/m2
06:25 60.2 °F 44.9 °F 29.57 in WNW 7 mph 13 mph 57% 0 in WeatherDisplay:10.37 W/m2
06:30 60.1 °F 44.8 °F 29.57 in WNW 3 mph 12 mph 57% 0 in WeatherDisplay:10.37 W/m2
06:35 60 °F 45.2 °F 29.56 in WNW 5 mph 12 mph 58% 0 in WeatherDisplay:10.37 W/m2
06:40 60 °F 45.2 °F 29.56 in WNW 3 mph 10 mph 58% 0 in WeatherDisplay:10.37 W/m2
06:45 60.2 °F 45.3 °F 29.56 in WNW 6 mph 13 mph 58% 0 in WeatherDisplay:10.37 W/m2
06:50 60.2 °F 45.4 °F 29.56 in NW 9.2 mph 4.1 mph 58% 0 in WeatherDisplay:10.37 W/m2
06:55 60.3 °F 45 °F 29.55 in WNW 6 mph 12 mph 57% 0 in WeatherDisplay:10.37 W/m2
07:00 60.4 °F 45.5 °F 29.55 in WNW 7 mph 12 mph 58% 0 in WeatherDisplay:10.37 W/m2
07:05 60.6 °F 45.3 °F 29.55 in WNW 5 mph 12 mph 57% 0 in WeatherDisplay:10.37 W/m2
07:10 60.6 °F 45.3 °F 29.55 in NW 7 mph 13 mph 57% 0 in WeatherDisplay:10.37 W/m2
07:15 60.7 °F 44.9 °F 29.55 in WNW 6 mph 13 mph 56% 0 in WeatherDisplay:10.37 W/m2
07:20 60.7 °F 45.4 °F 29.55 in WNW 3 mph 8 mph 57% 0 in WeatherDisplay:10.37 W/m2
07:25 60.6 °F 45.2 °F 29.54 in NW 3 mph 11 mph 57% 0 in WeatherDisplay:10.37 W/m2
07:30 60.5 °F 45.2 °F 29.54 in WNW 5 mph 10 mph 57% 0 in WeatherDisplay:10.37 W/m2
07:35 60.6 °F 45.3 °F 29.54 in NW 3 mph 10 mph 57% 0 in WeatherDisplay:10.37 W/m2
07:40 60.7 °F 44.9 °F 29.54 in WNW 10.4 mph 5.1 mph 56% 0 in WeatherDisplay:10.37 W/m2
07:45 60.7 °F 45.4 °F 29.53 in NW 5 mph 10 mph 57% 0 in WeatherDisplay:10.37 W/m2
07:50 60.5 °F 45.2 °F 29.54 in NW 5 mph 12 mph 57% 0 in WeatherDisplay:10.37 W/m2
07:55 60.5 °F 45.2 °F 29.53 in WNW 3.5 mph 1 mph 57% 0 in WeatherDisplay:10.37 W/m2
08:00 60.5 °F 45.2 °F 29.54 in WNW 3 mph 9 mph 57% 0 in WeatherDisplay:10.37 W/m2
08:05 60.4 °F 45.6 °F 29.54 in WNW 3 mph 7 mph 58% 0 in WeatherDisplay:10.37 W/m2
08:10 60.4 °F 45.5 °F 29.54 in NW 5 mph 9 mph 58% 0 in WeatherDisplay:10.37 W/m2
08:15 60.3 °F 45.4 °F 29.54 in NW 1 mph 6 mph 58% 0 in WeatherDisplay:10.37 W/m2
08:20 60.1 °F 45.7 °F 29.54 in NW 3 mph 12 mph 59% 0 in WeatherDisplay:10.37 W/m2
08:25 59.4 °F 48 °F 29.57 in NW 8 mph 13 mph 66% 0.06 in WeatherDisplay:10.37 W/m2
08:30 56.6 °F 48.8 °F 29.57 in NW 6 mph 13 mph 75% 0.14 in WeatherDisplay:10.37 W/m2
08:35 55 °F 48.9 °F 29.57 in NW 3 mph 7 mph 80% 0.11 in WeatherDisplay:10.37 W/m2
08:40 54 °F 49.3 °F 29.57 in NW 3 mph 12 mph 84% 0.06 in WeatherDisplay:10.37 W/m2
08:45 53.6 °F 49.5 °F 29.56 in NW 2 mph 12 mph 86% 0.03 in WeatherDisplay:10.37 W/m2
08:50 53.3 °F 49.8 °F 29.56 in NW 3 mph 13 mph 88% 0 in WeatherDisplay:10.37 W/m2
08:55 53.1 °F 49.9 °F 29.56 in Calm   9 mph 89% 0.04 in WeatherDisplay:10.37 W/m2
09:00 53 °F 49.8 °F 29.56 in Calm   7 mph 89% 0.01 in WeatherDisplay:10.37 W/m2
09:05 52.8 °F 50 °F 29.57 in NW 2 mph 6 mph 90% 0.01 in WeatherDisplay:10.37 W/m2
09:10 52.8 °F 49.9 °F 29.57 in NNW 1 mph 6 mph 90% 0 in WeatherDisplay:10.37 W/m2
09:15 52.7 °F 50.1 °F 29.57 in NNW 1 mph 4 mph 91% 0.02 in WeatherDisplay:10.37 W/m2
09:20 52.7 °F 50.1 °F 29.58 in Calm   7 mph 91% 0.04 in WeatherDisplay:10.37 W/m2
09:25 52.6 °F 50.4 °F 29.58 in NW 2 mph 6 mph 92% 0 in WeatherDisplay:10.37 W/m2
09:30 52.6 °F 50.3 °F 29.57 in NW 1 mph 5 mph 92% 0 in WeatherDisplay:10.37 W/m2
09:35 52.7 °F 50.4 °F 29.58 in NW 2 mph 9 mph 92% 0.03 in WeatherDisplay:10.37 W/m2
09:40 52.7 °F 50.4 °F 29.57 in NW 3.5 mph 1.9 mph 92% 0.18 in WeatherDisplay:10.37 W/m2
09:45 52.8 °F 50.8 °F 29.57 in NW 2 mph 6 mph 93% 0.01 in WeatherDisplay:10.37 W/m2
09:50 52.9 °F 50.9 °F 29.57 in NNW 2 mph 10 mph 93% 0.02 in WeatherDisplay:10.37 W/m2
09:55 53 °F 51 °F 29.58 in NNW 3 mph 6 mph 93% 0 in WeatherDisplay:10.37 W/m2
10:00 53.1 °F 51.1 °F 29.58 in North 3 mph 6 mph 93% 0.01 in WeatherDisplay:10.37 W/m2
10:05 53.1 °F 51.1 °F 29.58 in NNE 3 mph 9 mph 93% 0 in WeatherDisplay:10.37 W/m2
10:10 53.1 °F 51.2 °F 29.58 in North 2 mph 4 mph 93% 0.02 in WeatherDisplay:10.37 W/m2
10:15 52.9 °F 50.6 °F 29.58 in NE 3 mph 6 mph 92% 0 in WeatherDisplay:10.37 W/m2
10:20 52.5 °F 50.3 °F 29.58 in NE 1 mph 5 mph 92% 0.01 in WeatherDisplay:10.37 W/m2
10:25 52.4 °F 50.2 °F 29.58 in NE 1 mph 4 mph 92% 0.02 in WeatherDisplay:10.37 W/m2
10:30 52.4 °F 50.1 °F 29.58 in Calm   3 mph 92% 0 in WeatherDisplay:10.37 W/m2
10:35 52.4 °F 50.1 °F 29.59 in Calm   2 mph 92% 0.01 in WeatherDisplay:10.37 W/m2
10:40 52.4 °F 50.1 °F 29.59 in Calm   2 mph 92% 0 in WeatherDisplay:10.37 W/m2
10:45 52.4 °F 50.1 °F 29.58 in ENE 1 mph 2 mph 92% 0 in WeatherDisplay:10.37 W/m2
10:50 52.4 °F 50.1 °F 29.58 in ENE 1 mph 5 mph 92% 0.01 in WeatherDisplay:10.37 W/m2
10:55 52.4 °F 50.1 °F 29.58 in ENE 1.2 mph   92% 0.07 in WeatherDisplay:10.37 W/m2
11:00 52.4 °F 50.1 °F 29.58 in ENE 1 mph 3 mph 92% 0 in WeatherDisplay:10.37 W/m2
11:05 52.3 °F 50.3 °F 29.58 in ENE 2.3 mph 1.2 mph 93% 0.07 in WeatherDisplay:10.37 W/m2
11:10 52.3 °F 50 °F 29.58 in ENE 2 mph 8 mph 92% 0.01 in WeatherDisplay:10.37 W/m2
11:15 52.1 °F 49.9 °F 29.58 in East 5 mph 12 mph 92% 0 in WeatherDisplay:10.37 W/m2
11:20 51.7 °F 49.1 °F 29.59 in ENE 6 mph 12 mph 91% 0 in WeatherDisplay:10.37 W/m2
11:25 51.2 °F 48.3 °F 29.60 in NE 2 mph 14 mph 90% 0.02 in WeatherDisplay:10.37 W/m2
11:30 50.7 °F 47.9 °F 29.61 in NE 2 mph 10 mph 90% 0.02 in WeatherDisplay:10.37 W/m2
11:35 50.3 °F 47.5 °F 29.60 in Calm   7 mph 90% 0.03 in WeatherDisplay:10.37 W/m2
11:40 50.1 °F 47.3 °F 29.60 in Calm   5 mph 90% 0.03 in WeatherDisplay:10.37 W/m2
11:45 50.1 °F 47.6 °F 29.60 in ENE 1.2 mph 0.1 mph 91% 0.1 in WeatherDisplay:10.37 W/m2
11:50 50 °F 47.5 °F 29.60 in Calm     91% 0 in WeatherDisplay:10.37 W/m2
11:55 50.1 °F 47.9 °F 29.60 in Calm     92% 0.13 in WeatherDisplay:10.37 W/m2
12:00 50.1 °F 47.9 °F 29.60 in Calm     92% 0 in WeatherDisplay:10.37 W/m2
12:05 50.2 °F 48 °F 29.60 in Calm   1 mph 92% 0.01 in WeatherDisplay:10.37 W/m2
12:10 50.3 °F 48.1 °F 29.60 in Calm   1 mph 92% 0.01 in WeatherDisplay:10.37 W/m2
12:15 50.5 °F 48.5 °F 29.59 in Calm     93% 0 in WeatherDisplay:10.37 W/m2
12:20 50.6 °F 48.7 °F 29.59 in Calm   1 mph 93% 0.01 in WeatherDisplay:10.37 W/m2
12:25 50.7 °F 48.7 °F 29.59 in Calm   1 mph 93% 0 in WeatherDisplay:10.37 W/m2
12:30 50.7 °F 48.8 °F 29.58 in Calm     93% 0.01 in WeatherDisplay:10.37 W/m2
12:35 50.9 °F 49.3 °F 29.58 in Calm   4 mph 94% 0.02 in WeatherDisplay:10.37 W/m2
12:40 51.2 °F 49.5 °F 29.59 in Calm   5 mph 94% 0.01 in WeatherDisplay:10.37 W/m2
12:45 51.3 °F 49.6 °F 29.59 in North 2 mph 12 mph 94% 0.02 in WeatherDisplay:10.37 W/m2
12:50 51.3 °F 49.6 °F 29.58 in NNE 3.5 mph 0.9 mph 94% 0.09 in WeatherDisplay:10.37 W/m2
12:55 51.2 °F 49.5 °F 29.58 in NNW 5.8 mph 3.2 mph 94% 0.09 in WeatherDisplay:10.37 W/m2
13:00 51 °F 49 °F 29.58 in Calm   5 mph 93% 0 in WeatherDisplay:10.37 W/m2
13:05 50.8 °F 49.2 °F 29.58 in NW 1 mph 7 mph 94% 0.01 in WeatherDisplay:10.37 W/m2
13:10 50.8 °F 49.2 °F 29.57 in NNW 3 mph 7 mph 94% 0.02 in WeatherDisplay:10.37 W/m2
13:15 50.7 °F 48.7 °F 29.57 in NW 1 mph 9 mph 93% 0.01 in WeatherDisplay:10.37 W/m2
13:20 50.5 °F 48.6 °F 29.57 in NW 3 mph 9 mph 93% 0.01 in WeatherDisplay:10.37 W/m2
13:25 50.5 °F 48.5 °F 29.56 in NW 3 mph 6 mph 93% 0.01 in WeatherDisplay:10.37 W/m2
13:30 50.3 °F 48.1 °F 29.56 in NW 2 mph 9 mph 92% 0 in WeatherDisplay:10.37 W/m2
13:35 50.4 °F 48.5 °F 29.56 in NW 2.3 mph 1.1 mph 93% 0.07 in WeatherDisplay:10.37 W/m2
13:40 50.5 °F 48.6 °F 29.56 in NW 1 mph 4 mph 93% 0 in WeatherDisplay:10.37 W/m2
13:45 50.6 °F 48.6 °F 29.55 in NW 5 mph 8 mph 93% 0.01 in WeatherDisplay:10.37 W/m2
13:50 50.7 °F 48.7 °F 29.55 in WNW 3.5 mph 1 mph 93% 0.05 in WeatherDisplay:10.37 W/m2
13:55 50.8 °F 48.8 °F 29.54 in WNW 3.5 mph 0.3 mph 93% 0.04 in WeatherDisplay:10.37 W/m2
14:00 50.8 °F 48.9 °F 29.54 in NW 1 mph 5 mph 93% 0 in WeatherDisplay:10.37 W/m2
14:05 50.9 °F 48.9 °F 29.54 in WNW 3.5 mph 0.4 mph 93% 0.03 in WeatherDisplay:10.37 W/m2
14:10 50.7 °F 48.8 °F 29.54 in WNW 2 mph 7 mph 93% 0 in WeatherDisplay:10.37 W/m2
14:15 50.8 °F 48.8 °F 29.53 in WNW 1 mph 4 mph 93% 0 in WeatherDisplay:10.37 W/m2
14:20 50.7 °F 48.7 °F 29.53 in WNW 1 mph 5 mph 93% 0 in WeatherDisplay:10.37 W/m2
14:25 50.8 °F 48.8 °F 29.53 in Calm   5 mph 93% 0 in WeatherDisplay:10.37 W/m2
14:30 50.8 °F 48.9 °F 29.52 in NW 2 mph 7 mph 93% 0 in WeatherDisplay:10.37 W/m2
14:35 50.9 °F 48.9 °F 29.53 in NW 5 mph 1.9 mph 93% 0.02 in WeatherDisplay:10.37 W/m2
14:40 51 °F 49 °F 29.52 in NW 1 mph 5 mph 93% 0 in WeatherDisplay:10.37 W/m2
14:45 51 °F 49 °F 29.52 in NW 1 mph 6 mph 93% 0.01 in WeatherDisplay:10.37 W/m2
14:50 51 °F 49 °F 29.52 in NW 1 mph 7 mph 93% 0.01 in WeatherDisplay:10.37 W/m2
14:55 50.9 °F 48.9 °F 29.53 in WNW 5 mph 12 mph 93% 0 in WeatherDisplay:10.37 W/m2
15:00 50.7 °F 48.4 °F 29.53 in NW 6 mph 12 mph 92% 0 in WeatherDisplay:10.37 W/m2
15:05 50.4 °F 47.9 °F 29.52 in NW 5 mph 10 mph 91% 0 in WeatherDisplay:10.37 W/m2
15:10 50.4 °F 47.9 °F 29.52 in NW 6 mph 10 mph 91% 0 in WeatherDisplay:10.37 W/m2
15:15 50.4 °F 47.6 °F 29.52 in NW 2 mph 7 mph 90% 0 in WeatherDisplay:10.37 W/m2
15:20 50.3 °F 47.5 °F 29.52 in NW 5 mph 10 mph 90% 0 in WeatherDisplay:10.37 W/m2
15:25 50.1 °F 47.3 °F 29.52 in NW 2 mph 7 mph 90% 0 in WeatherDisplay:10.37 W/m2
15:30 50 °F 47.2 °F 29.51 in WNW 5 mph 10 mph 90% 0 in WeatherDisplay:10.37 W/m2
15:35 50 °F 47.2 °F 29.51 in NW 2 mph 5 mph 90% 0 in WeatherDisplay:10.37 W/m2
15:40 50.1 °F 47.2 °F 29.51 in NW 3 mph 6 mph 90% 0 in WeatherDisplay:10.37 W/m2
15:45 50.1 °F 47.3 °F 29.51 in NW 3 mph 7 mph 90% 0 in WeatherDisplay:10.37 W/m2
15:50 50 °F 47.2 °F 29.51 in NW 5 mph 8 mph 90% 0 in WeatherDisplay:10.37 W/m2
15:55 50 °F 47.2 °F 29.51 in NW 3 mph 8 mph 90% 0 in WeatherDisplay:10.37 W/m2
16:00 50 °F 47.2 °F 29.51 in NW 5 mph 8 mph 90% 0 in WeatherDisplay:10.37 W/m2
16:05 50.1 °F 47.3 °F 29.51 in NW 5 mph 12 mph 90% 0 in WeatherDisplay:10.37 W/m2
16:10 50.3 °F 47.4 °F 29.51 in Calm   15 mph 90% 0 in WeatherDisplay:10.37 W/m2
16:15 50.2 °F 47.4 °F 29.51 in NW 5 mph 15 mph 90% 0 in WeatherDisplay:10.37 W/m2
16:20 50.2 °F 47.4 °F 29.51 in NNW 5 mph 10 mph 90% 0 in WeatherDisplay:10.37 W/m2
16:25 50.1 °F 47.3 °F 29.51 in NNE 2 mph 13 mph 90% 0.01 in WeatherDisplay:10.37 W/m2
16:30 49.9 °F 47.4 °F 29.51 in ENE 11.5 mph 3.2 mph 91% 0.07 in WeatherDisplay:10.37 W/m2
16:35 49.8 °F 47.6 °F 29.51 in ENE 2 mph 8 mph 92% 0.08 in WeatherDisplay:10.37 W/m2
16:40 49.5 °F 47.3 °F 29.51 in NE 3 mph 8 mph 92% 0.04 in WeatherDisplay:10.37 W/m2
16:45 49.3 °F 47.1 °F 29.51 in ENE 6.9 mph 4.3 mph 92% 0.11 in WeatherDisplay:10.37 W/m2
16:50 49.2 °F 46.9 °F 29.51 in ENE 2 mph 9 mph 92% 0 in WeatherDisplay:10.37 W/m2
16:55 49 °F 46.8 °F 29.51 in ENE 3 mph 9 mph 92% 0.01 in WeatherDisplay:10.37 W/m2
17:00 48.9 °F 46.7 °F 29.51 in ENE 2 mph 7 mph 92% 0 in WeatherDisplay:10.37 W/m2
17:05 48.7 °F 46.5 °F 29.51 in Calm   12 mph 92% 0 in WeatherDisplay:10.37 W/m2
17:10 48.7 °F 46.5 °F 29.51 in ENE 1 mph 5 mph 92% 0 in WeatherDisplay:10.37 W/m2
17:15 48.6 °F 46.4 °F 29.51 in ENE 1 mph 7 mph 92% 0 in WeatherDisplay:10.37 W/m2
17:20 48.6 °F 46.4 °F 29.51 in ENE 1 mph 7 mph 92% 0 in WeatherDisplay:10.37 W/m2
17:25 48.5 °F 46.3 °F 29.51 in ENE 3.5 mph 0.6 mph 92% 0.12 in WeatherDisplay:10.37 W/m2
17:30 48.5 °F 46.3 °F 29.50 in ENE 1 mph 8 mph 92% 0.01 in WeatherDisplay:10.37 W/m2
17:35 48.5 °F 46.3 °F 29.50 in NE 1 mph 5 mph 92% 0 in WeatherDisplay:10.37 W/m2
17:40 48.5 °F 46.3 °F 29.50 in Calm   4 mph 92% 0 in WeatherDisplay:10.37 W/m2
17:45 48.6 °F 46.7 °F 29.51 in North 1.2 mph 0.4 mph 93% 0.05 in WeatherDisplay:10.37 W/m2
17:50 48.6 °F 46.7 °F 29.51 in North 3 mph 8 mph 93% 0.03 in WeatherDisplay:10.37 W/m2
17:55 48.6 °F 46.6 °F 29.51 in NNW 1 mph 8 mph 93% 0.02 in WeatherDisplay:10.37 W/m2
18:00 48.5 °F 46.2 °F 29.50 in NNW 3 mph 8 mph 92% 0 in WeatherDisplay:10.37 W/m2
18:05 48.5 °F 46.3 °F 29.50 in North 2 mph 7 mph 92% 0.01 in WeatherDisplay:10.37 W/m2
18:10 48.6 °F 46.7 °F 29.50 in NNE 2 mph 7 mph 93% 0.01 in WeatherDisplay:10.37 W/m2
18:15 48.8 °F 46.9 °F 29.50 in NNE 1 mph 8 mph 93% 0.01 in WeatherDisplay:10.37 W/m2
18:20 49 °F 47.1 °F 29.50 in NNW 2.3 mph 0.3 mph 93% 0.08 in WeatherDisplay:10.37 W/m2
18:25 49.1 °F 47.2 °F 29.50 in NW 4.6 mph 1.7 mph 93% 0.07 in WeatherDisplay:10.37 W/m2
18:30 49.1 °F 47.2 °F 29.50 in NW 2 mph 8 mph 93% 0 in WeatherDisplay:10.37 W/m2
18:35 48.7 °F 46.5 °F 29.51 in North 5 mph 10 mph 92% 0.02 in WeatherDisplay:10.37 W/m2
18:40 48.5 °F 46.3 °F 29.51 in North 5 mph 9 mph 92% 0.01 in WeatherDisplay:10.37 W/m2
18:45 48.2 °F 46 °F 29.51 in North 3 mph 9 mph 92% 0.03 in WeatherDisplay:10.37 W/m2
18:50 48.1 °F 45.9 °F 29.51 in NNW 2 mph 5 mph 92% 0.01 in WeatherDisplay:10.37 W/m2
18:55 48.1 °F 45.9 °F 29.51 in NNW 1 mph 5 mph 92% 0.01 in WeatherDisplay:10.37 W/m2
19:00 48.1 °F 46.2 °F 29.51 in NNW 5 mph 9 mph 93% 0.01 in WeatherDisplay:10.37 W/m2
19:05 48.1 °F 46.2 °F 29.51 in WNW 5 mph 9 mph 93% 0.06 in WeatherDisplay:10.37 W/m2
19:10 47.9 °F 46 °F 29.51 in NW 5 mph 13 mph 93% 0.05 in WeatherDisplay:10.37 W/m2
19:15 47.7 °F 45.8 °F 29.51 in NW 3 mph 7 mph 93% 0.04 in WeatherDisplay:10.37 W/m2
19:20 47.3 °F 45.4 °F 29.51 in NW 1 mph 6 mph 93% 0 in WeatherDisplay:10.37 W/m2
19:25 47.2 °F 45.3 °F 29.51 in Calm   4 mph 93% 0 in WeatherDisplay:10.37 W/m2
19:30 47.2 °F 45.3 °F 29.50 in Calm   4 mph 93% 0.03 in WeatherDisplay:10.37 W/m2
19:35 47.2 °F 45.3 °F 29.50 in Calm   1 mph 93% 0.02 in WeatherDisplay:10.37 W/m2
19:40 47.3 °F 45.7 °F 29.50 in Calm   2 mph 94% 0.01 in WeatherDisplay:10.37 W/m2
19:45 47.3 °F 45.7 °F 29.51 in Calm     94% 0 in WeatherDisplay:10.37 W/m2
19:50 47.4 °F 45.7 °F 29.50 in NNW 1 mph 3 mph 94% 0.02 in WeatherDisplay:10.37 W/m2
19:55 47.4 °F 45.8 °F 29.50 in NNW 1 mph 5 mph 94% 0.01 in WeatherDisplay:10.37 W/m2
20:00 47.4 °F 45.8 °F 29.50 in Calm   4 mph 94% 0.01 in WeatherDisplay:10.37 W/m2
20:05 47.3 °F 45.7 °F 29.50 in NNW 3.5 mph 2.3 mph 94% 0.22 in WeatherDisplay:10.37 W/m2
20:10 47.2 °F 45.6 °F 29.51 in NNW 1 mph 3 mph 94% 0.06 in WeatherDisplay:10.37 W/m2
20:15 47.1 °F 45.4 °F 29.50 in Calm   3 mph 94% 0.04 in WeatherDisplay:10.37 W/m2
20:20 46.9 °F 45.3 °F 29.50 in Calm   3 mph 94% 0.02 in WeatherDisplay:10.37 W/m2
20:25 46.8 °F 45.2 °F 29.50 in Calm   2 mph 94% 0 in WeatherDisplay:10.37 W/m2
20:30 46.7 °F 45.1 °F 29.50 in Calm   2 mph 94% 0 in WeatherDisplay:10.37 W/m2
20:35 46.7 °F 45.1 °F 29.50 in Calm     94% 0.16 in WeatherDisplay:10.37 W/m2
20:40 46.7 °F 45.1 °F 29.49 in Calm     94% 0.16 in WeatherDisplay:10.37 W/m2
20:45 46.6 °F 45.2 °F 29.49 in Calm     95% 0 in WeatherDisplay:10.37 W/m2
20:50 46.6 °F 45.2 °F 29.49 in Calm     95% 0 in WeatherDisplay:10.37 W/m2
20:55 46.6 °F 45.2 °F 29.49 in Calm     95% 0 in WeatherDisplay:10.37 W/m2
21:00 46.6 °F 45.2 °F 29.49 in Calm     95% 0 in WeatherDisplay:10.37 W/m2
21:05 46.7 °F 45.3 °F 29.49 in NNW 2.3 mph 0.5 mph 95% 0.04 in WeatherDisplay:10.37 W/m2
21:10 46.7 °F 45.3 °F 29.49 in Calm   2 mph 95% 0 in WeatherDisplay:10.37 W/m2
21:15 46.7 °F 45.3 °F 29.49 in North 1 mph 4 mph 95% 0 in WeatherDisplay:10.37 W/m2
21:20 46.7 °F 45.3 °F 29.49 in ENE 6.9 mph 2.8 mph 95% 0 in WeatherDisplay:10.37 W/m2
21:25 46.6 °F 45 °F 29.49 in ENE 5 mph 9 mph 94% 0 in WeatherDisplay:10.37 W/m2
21:30 46.7 °F 45.1 °F 29.49 in ENE 5 mph 9 mph 94% 0 in WeatherDisplay:10.37 W/m2
21:35 47 °F 45.1 °F 29.49 in ENE 2 mph 9 mph 93% 0 in WeatherDisplay:10.37 W/m2
21:40 47.1 °F 44.9 °F 29.49 in NE 5 mph 9 mph 92% 0 in WeatherDisplay:10.37 W/m2
21:45 47.2 °F 44.7 °F 29.48 in NE 2 mph 7 mph 91% 0 in WeatherDisplay:10.37 W/m2
21:50 47.2 °F 44.7 °F 29.48 in NE 9.2 mph 4 mph 91% 0 in WeatherDisplay:10.37 W/m2
21:55 47.2 °F 44.4 °F 29.48 in NE 1 mph 9 mph 90% 0 in WeatherDisplay:10.37 W/m2
22:00 47.4 °F 44.3 °F 29.48 in NE 2 mph 12 mph 89% 0 in WeatherDisplay:10.37 W/m2
22:05 47.4 °F 44.3 °F 29.48 in ENE 3 mph 10 mph 89% 0 in WeatherDisplay:10.37 W/m2
22:10 47.3 °F 43.9 °F 29.48 in NE 5 mph 10 mph 88% 0 in WeatherDisplay:10.37 W/m2
22:15 47.4 °F 44 °F 29.48 in NE 2 mph   88% 0 in WeatherDisplay:10.37 W/m2
22:20 47.4 °F 44 °F 29.48 in ENE 1 mph 12 mph 88% 0 in WeatherDisplay:10.37 W/m2
22:25 47.5 °F 44.1 °F 29.48 in ENE 1 mph 12 mph 88% 0 in WeatherDisplay:10.37 W/m2
22:30 47.5 °F 44.1 °F 29.47 in Calm   12 mph 88% 0 in WeatherDisplay:10.37 W/m2
22:35 47.4 °F 44 °F 29.47 in NE 5 mph 12 mph 88% 0 in WeatherDisplay:10.37 W/m2
22:40 47.4 °F 44 °F 29.47 in Calm   8 mph 88% 0 in WeatherDisplay:10.37 W/m2
22:45 47.3 °F 44 °F 29.47 in ENE 1 mph 5 mph 88% 0 in WeatherDisplay:10.37 W/m2
22:50 47.3 °F 44.2 °F 29.47 in NE 2 mph 8 mph 89% 0 in WeatherDisplay:10.37 W/m2
22:55 47.3 °F 44.2 °F 29.47 in ENE 2 mph 12 mph 89% 0 in WeatherDisplay:10.37 W/m2
west seneca weather
Compliments of Weather Underground - 2 mb